Time;durP1;ratioP1;P1;durP2;ratioP2;P2;SDS_P1;SDS_P2;PMS_P1;PMS_P2;Temp;Humidity;BMP_temperature;BMP_pressure;BME280_temperature;BME280_humidity;BME280_pressure;Samples;Min_cycle;Max_cycle;Signal;HPM_P1;HPM_P2
2024/01/14 00:01:43;;;;;;;3.03;2.83;;;18.50;36.40;;;;;;5011965;28;20462;-83
2024/01/14 00:04:09;;;;;;;2.70;2.60;;;18.50;36.40;;;;;;5011142;28;20638;-82
2024/01/14 00:06:35;;;;;;;2.60;2.40;;;18.50;36.40;;;;;;5014192;28;20321;-82
2024/01/14 00:09:00;;;;;;;3.07;2.87;;;18.50;36.40;;;;;;5010667;28;20285;-82
2024/01/14 00:11:26;;;;;;;3.07;2.87;;;18.50;36.40;;;;;;4994987;28;20235;-83
2024/01/14 00:13:52;;;;;;;3.07;2.87;;;18.50;36.40;;;;;;5011975;28;20365;-82
2024/01/14 00:16:18;;;;;;;3.20;3.00;;;18.50;36.40;;;;;;5013155;28;20576;-82
2024/01/14 00:18:43;;;;;;;3.40;3.20;;;18.50;36.40;;;;;;5011741;28;20234;-82
2024/01/14 00:21:09;;;;;;;3.23;2.80;;;18.50;36.50;;;;;;5011296;28;20695;-82
2024/01/14 00:23:34;;;;;;;2.80;2.60;;;18.50;36.50;;;;;;5012204;28;20230;-82
2024/01/14 00:26:01;;;;;;;3.17;2.97;;;18.50;36.50;;;;;;5012264;28;20329;-82
2024/01/14 00:28:27;;;;;;;3.13;2.93;;;18.50;36.50;;;;;;5010378;28;20277;-83
2024/01/14 00:30:52;;;;;;;2.90;2.70;;;18.50;36.40;;;;;;5011830;28;20490;-81
2024/01/14 00:33:18;;;;;;;3.10;2.90;;;18.50;36.40;;;;;;5011182;28;20965;-80
2024/01/14 00:35:44;;;;;;;2.77;2.57;;;18.50;36.50;;;;;;4996478;28;20250;-82
2024/01/14 00:38:10;;;;;;;2.70;2.50;;;18.50;36.50;;;;;;5012400;28;20220;-82
2024/01/14 00:40:37;;;;;;;2.80;2.60;;;18.50;36.50;;;;;;5009549;28;20230;-82
2024/01/14 00:43:03;;;;;;;3.40;3.10;;;18.50;36.50;;;;;;5010739;28;20434;-82
2024/01/14 00:45:28;;;;;;;3.40;3.20;;;18.50;36.50;;;;;;5012471;28;21520;-82
2024/01/14 00:47:54;;;;;;;3.87;3.40;;;18.50;36.50;;;;;;4994549;28;20258;-82
2024/01/14 00:50:20;;;;;;;2.77;2.63;;;18.50;36.50;;;;;;5012111;28;20237;-81
2024/01/14 00:52:45;;;;;;;2.70;2.50;;;18.50;36.50;;;;;;5014334;28;21098;-82
2024/01/14 00:55:11;;;;;;;3.00;2.70;;;18.50;36.50;;;;;;5009968;28;20215;-82
2024/01/14 00:57:36;;;;;;;3.13;2.93;;;18.50;36.50;;;;;;5012176;28;20219;-83
2024/01/14 01:00:03;;;;;;;3.17;2.97;;;18.50;36.50;;;;;;5010249;28;20206;-83
2024/01/14 01:02:28;;;;;;;3.07;2.87;;;18.50;36.50;;;;;;5011129;28;20272;-82
2024/01/14 01:04:54;;;;;;;3.13;2.93;;;18.50;36.50;;;;;;5012540;28;20441;-82
2024/01/14 01:07:20;;;;;;;2.63;2.43;;;18.50;36.50;;;;;;5008241;28;20307;-82
2024/01/14 01:09:46;;;;;;;2.40;2.30;;;18.50;36.50;;;;;;5011643;28;20234;-82
2024/01/14 01:12:11;;;;;;;2.53;2.37;;;18.50;36.50;;;;;;5009113;28;20531;-82
2024/01/14 01:14:37;;;;;;;2.97;2.77;;;18.50;36.50;;;;;;5008754;28;20321;-82
2024/01/14 01:17:04;;;;;;;2.67;2.50;;;18.50;36.50;;;;;;5010409;28;20290;-82
2024/01/14 01:19:30;;;;;;;2.93;2.70;;;18.50;36.50;;;;;;5010000;28;20910;-82
2024/01/14 01:21:55;;;;;;;2.83;2.63;;;18.50;36.50;;;;;;4997052;28;20444;-82
2024/01/14 01:24:21;;;;;;;2.83;2.53;;;18.40;36.40;;;;;;5010608;28;20227;-82
2024/01/14 01:26:46;;;;;;;2.70;2.50;;;18.50;36.50;;;;;;5011029;28;20210;-82
2024/01/14 01:29:12;;;;;;;3.03;2.83;;;18.40;36.50;;;;;;5012018;28;20558;-82
2024/01/14 01:31:37;;;;;;;3.17;2.90;;;18.50;36.50;;;;;;5010447;28;20258;-82
2024/01/14 01:34:03;;;;;;;2.83;2.63;;;18.50;36.50;;;;;;5008789;28;20224;-82
2024/01/14 01:36:29;;;;;;;2.97;2.77;;;18.50;36.50;;;;;;5000737;28;20475;-82
2024/01/14 01:38:54;;;;;;;5.10;2.50;;;18.40;36.40;;;;;;5010795;28;20459;-82
2024/01/14 01:41:22;;;;;;;2.90;2.70;;;18.50;36.50;;;;;;5008440;28;20215;-81
2024/01/14 01:43:47;;;;;;;2.70;2.60;;;18.40;36.40;;;;;;5011179;28;20244;-82
2024/01/14 01:46:13;;;;;;;3.03;2.83;;;18.50;36.50;;;;;;5010089;28;21771;-82
2024/01/14 01:48:39;;;;;;;3.20;3.00;;;18.50;36.50;;;;;;5011625;28;20285;-82
2024/01/14 01:51:05;;;;;;;3.10;2.90;;;18.40;36.40;;;;;;5006667;28;21006;-82
2024/01/14 01:53:31;;;;;;;3.00;2.80;;;18.40;36.40;;;;;;5012013;28;20222;-82
2024/01/14 01:55:57;;;;;;;2.90;2.70;;;18.40;36.50;;;;;;5010115;28;20429;-82
2024/01/14 01:58:23;;;;;;;3.07;2.87;;;18.40;36.40;;;;;;5010997;28;20225;-82
2024/01/14 02:00:50;;;;;;;3.50;3.30;;;18.40;36.40;;;;;;5009884;28;20415;-81
2024/01/14 02:03:15;;;;;;;3.10;2.90;;;18.40;36.40;;;;;;5010918;28;20238;-83
2024/01/14 02:05:44;;;;;;;3.20;3.00;;;18.40;36.40;;;;;;5007544;28;20419;-82
2024/01/14 02:08:10;;;;;;;3.23;3.03;;;18.40;36.40;;;;;;5009818;28;20330;-82
2024/01/14 02:10:36;;;;;;;2.83;2.67;;;18.40;36.50;;;;;;5008124;28;20487;-82
2024/01/14 02:13:03;;;;;;;2.83;2.63;;;18.40;36.50;;;;;;5010925;28;20906;-82
2024/01/14 02:15:28;;;;;;;3.40;3.20;;;18.40;36.40;;;;;;5010266;28;20676;-82
2024/01/14 02:17:54;;;;;;;3.40;3.20;;;18.40;36.50;;;;;;4994880;28;20957;-82
2024/01/14 02:20:20;;;;;;;3.43;3.23;;;18.40;36.40;;;;;;4994561;28;20314;-81
2024/01/14 02:22:48;;;;;;;2.77;2.57;;;18.40;36.40;;;;;;5011096;28;20216;-82
2024/01/14 02:25:14;;;;;;;3.00;2.80;;;18.40;36.50;;;;;;5008291;28;20245;-82
2024/01/14 02:27:40;;;;;;;3.50;3.30;;;18.40;36.50;;;;;;5008586;28;20467;-83
2024/01/14 02:30:09;;;;;;;2.83;2.67;;;18.40;36.40;;;;;;5009334;28;20362;-82
2024/01/14 02:32:38;;;;;;;3.50;3.20;;;18.40;36.40;;;;;;5010047;28;20211;-82
2024/01/14 02:35:05;;;;;;;2.90;2.70;;;18.40;36.50;;;;;;5008685;28;20441;-82
2024/01/14 02:37:32;;;;;;;2.57;2.43;;;18.40;36.50;;;;;;5010477;28;20434;-82
2024/01/14 02:39:57;;;;;;;2.90;2.63;;;18.40;36.50;;;;;;5009033;28;20468;-82
2024/01/14 02:42:23;;;;;;;2.60;2.40;;;18.40;36.50;;;;;;5008473;28;20435;-82
2024/01/14 02:44:49;;;;;;;3.60;3.37;;;18.40;36.50;;;;;;4992664;28;20560;-82
2024/01/14 02:47:14;;;;;;;3.10;2.80;;;18.40;36.50;;;;;;5010466;28;20691;-83
2024/01/14 02:49:40;;;;;;;2.90;2.80;;;18.40;36.50;;;;;;5010999;28;20691;-82
2024/01/14 02:52:05;;;;;;;3.20;2.90;;;18.40;36.50;;;;;;5006580;28;20625;-82
2024/01/14 02:54:31;;;;;;;3.03;2.83;;;18.40;36.40;;;;;;5012664;28;20850;-82
2024/01/14 02:56:56;;;;;;;3.10;2.80;;;18.40;36.50;;;;;;5009665;28;20214;-82
2024/01/14 02:59:22;;;;;;;3.27;3.07;;;18.40;37.20;;;;;;4995992;28;20226;-83
2024/01/14 03:01:47;;;;;;;3.10;2.90;;;18.40;36.50;;;;;;4999586;28;20223;-82
2024/01/14 03:04:13;;;;;;;3.20;3.00;;;18.40;36.50;;;;;;5008291;28;20252;-82
2024/01/14 03:06:39;;;;;;;2.90;2.80;;;18.40;37.20;;;;;;5011026;28;20243;-83
2024/01/14 03:09:07;;;;;;;3.10;2.90;;;18.40;36.50;;;;;;5010420;28;20250;-82
2024/01/14 03:11:36;;;;;;;4.60;3.13;;;18.40;36.50;;;;;;5013826;28;20231;-82
2024/01/14 03:14:02;;;;;;;2.67;2.40;;;18.40;36.40;;;;;;5016589;28;20466;-82
2024/01/14 03:16:27;;;;;;;3.07;2.87;;;18.40;36.40;;;;;;5013838;28;20448;-83
2024/01/14 03:18:53;;;;;;;2.70;2.50;;;18.40;36.40;;;;;;5013348;28;20426;-82
2024/01/14 03:21:18;;;;;;;2.50;2.30;;;18.40;36.40;;;;;;4997515;28;20223;-81
2024/01/14 03:23:45;;;;;;;2.97;2.80;;;18.40;36.40;;;;;;5012938;28;20233;-82
2024/01/14 03:26:10;;;;;;;2.87;2.70;;;18.40;36.50;;;;;;4998977;28;20238;-82
2024/01/14 03:28:36;;;;;;;3.10;2.90;;;18.40;36.50;;;;;;5014917;28;20438;-82
2024/01/14 03:31:03;;;;;;;3.10;2.90;;;18.40;36.50;;;;;;5014823;28;20274;-82
2024/01/14 03:33:28;;;;;;;2.93;2.73;;;18.40;36.40;;;;;;5013967;28;20221;-83
2024/01/14 03:35:54;;;;;;;3.53;3.23;;;18.40;36.50;;;;;;5000930;28;20434;-82
2024/01/14 03:38:19;;;;;;;2.80;2.60;;;18.40;36.50;;;;;;5015212;28;20270;-82
2024/01/14 03:40:46;;;;;;;2.90;2.73;;;18.40;36.50;;;;;;5014490;28;20227;-82
2024/01/14 03:43:11;;;;;;;2.60;2.40;;;18.40;36.40;;;;;;5012703;28;20222;-82
2024/01/14 03:45:37;;;;;;;3.40;3.20;;;18.40;36.50;;;;;;5013713;28;20439;-82
2024/01/14 03:48:03;;;;;;;3.50;3.30;;;18.40;36.40;;;;;;5012061;28;20614;-82
2024/01/14 03:50:29;;;;;;;3.33;3.13;;;18.40;36.30;;;;;;5011470;28;20269;-82
2024/01/14 03:52:54;;;;;;;2.80;2.60;;;18.40;36.30;;;;;;5014807;28;20407;-81
2024/01/14 03:55:20;;;;;;;2.90;2.70;;;18.40;36.40;;;;;;4999006;28;20225;-81
2024/01/14 03:57:45;;;;;;;3.33;3.13;;;18.40;36.40;;;;;;5012381;28;20262;-82
2024/01/14 04:00:12;;;;;;;2.93;2.73;;;18.40;36.50;;;;;;5012151;28;20223;-83
2024/01/14 04:02:38;;;;;;;2.70;2.60;;;18.40;36.40;;;;;;4995599;28;20616;-82
2024/01/14 04:05:04;;;;;;;3.50;3.30;;;18.40;36.40;;;;;;5013640;28;20505;-82
2024/01/14 04:07:29;;;;;;;3.20;3.00;;;18.40;36.40;;;;;;4997869;28;22474;-82
2024/01/14 04:09:55;;;;;;;3.30;3.10;;;18.40;36.40;;;;;;5008134;28;20241;-82
2024/01/14 04:12:21;;;;;;;3.03;2.70;;;18.40;36.40;;;;;;5013989;28;20975;-82
2024/01/14 04:14:46;;;;;;;2.70;2.60;;;18.40;36.40;;;;;;5013861;28;20238;-82
2024/01/14 04:17:12;;;;;;;3.40;3.20;;;18.40;36.50;;;;;;5011426;28;20560;-82
2024/01/14 04:19:38;;;;;;;2.77;2.57;;;18.40;36.40;;;;;;5014455;28;20230;-82
2024/01/14 04:22:04;;;;;;;2.73;2.53;;;18.40;36.40;;;;;;5008691;28;20218;-82
2024/01/14 04:24:29;;;;;;;2.53;2.40;;;18.40;36.40;;;;;;5010464;28;21479;-82
2024/01/14 04:26:55;;;;;;;2.93;2.80;;;18.40;36.70;;;;;;5014524;28;20838;-82
2024/01/14 04:29:20;;;;;;;2.80;2.70;;;18.40;36.50;;;;;;5013455;28;20301;-82
2024/01/14 04:31:46;;;;;;;2.80;2.60;;;18.40;36.40;;;;;;5013248;28;20324;-82
2024/01/14 04:34:11;;;;;;;2.40;2.30;;;18.40;36.40;;;;;;5012760;28;20238;-82
2024/01/14 04:36:37;;;;;;;2.60;2.40;;;18.40;36.40;;;;;;4995239;28;20215;-82
2024/01/14 04:39:02;;;;;;;3.07;2.87;;;18.40;36.50;;;;;;5012112;28;20222;-82
2024/01/14 04:41:28;;;;;;;2.50;2.30;;;18.40;36.50;;;;;;5011962;28;20377;-82
2024/01/14 04:43:54;;;;;;;3.00;2.80;;;18.40;36.40;;;;;;5013595;28;20718;-82
2024/01/14 04:46:19;;;;;;;3.00;2.80;;;18.40;36.40;;;;;;5014204;28;20682;-82
2024/01/14 04:48:45;;;;;;;3.60;3.40;;;18.40;36.40;;;;;;4998843;28;20675;-82
2024/01/14 04:51:11;;;;;;;3.17;2.97;;;18.40;37.20;;;;;;5011699;28;20227;-82
2024/01/14 04:53:36;;;;;;;2.43;2.33;;;18.40;36.40;;;;;;5012073;28;20876;-82
2024/01/14 04:56:08;;;;;;;2.43;2.33;;;18.40;36.30;;;;;;5013266;28;20309;-82
2024/01/14 04:58:34;;;;;;;2.80;2.70;;;18.40;36.50;;;;;;5011817;28;20230;-82
2024/01/14 05:01:00;;;;;;;2.97;2.77;;;18.40;36.30;;;;;;5011301;28;20453;-83
2024/01/14 05:03:25;;;;;;;3.20;3.00;;;18.40;36.30;;;;;;4994414;28;20223;-82
2024/01/14 05:05:51;;;;;;;2.60;2.50;;;18.40;36.20;;;;;;5010742;28;20246;-82
2024/01/14 05:08:17;;;;;;;3.10;2.90;;;18.40;36.30;;;;;;5001748;28;20285;-82
2024/01/14 05:10:43;;;;;;;2.60;2.50;;;18.50;36.30;;;;;;5006679;28;20895;-83
2024/01/14 05:13:08;;;;;;;2.73;2.63;;;18.50;36.30;;;;;;4996599;28;21160;-83
2024/01/14 05:15:34;;;;;;;3.07;2.87;;;18.50;36.30;;;;;;5011771;28;21172;-82
2024/01/14 05:17:59;;;;;;;2.70;2.60;;;18.50;36.30;;;;;;5011258;28;20338;-83
2024/01/14 05:20:25;;;;;;;2.83;2.63;;;18.50;36.20;;;;;;5009751;28;20570;-82
2024/01/14 05:22:50;;;;;;;2.83;2.70;;;18.50;36.20;;;;;;5014661;28;20269;-82
2024/01/14 05:25:16;;;;;;;2.53;2.37;;;18.50;36.20;;;;;;5008823;28;20219;-83
2024/01/14 05:27:41;;;;;;;2.70;2.60;;;18.50;36.20;;;;;;5011028;28;20230;-82
2024/01/14 05:30:08;;;;;;;3.00;2.80;;;18.50;36.20;;;;;;5014368;28;20901;-82
2024/01/14 05:32:34;;;;;;;3.30;3.10;;;18.50;36.10;;;;;;5011620;28;20214;-83
2024/01/14 05:34:59;;;;;;;2.43;2.23;;;18.50;36.20;;;;;;5013773;28;20472;-82
2024/01/14 05:37:24;;;;;;;2.70;2.60;;;18.50;36.20;;;;;;5013708;28;20222;-82
2024/01/14 05:39:50;;;;;;;2.70;2.50;;;18.50;36.20;;;;;;5009693;28;20598;-81
2024/01/14 05:42:16;;;;;;;2.80;2.60;;;18.50;36.10;;;;;;5011725;28;20277;-82
2024/01/14 05:44:42;;;;;;;3.40;3.20;;;18.50;36.10;;;;;;5011989;28;20436;-83
2024/01/14 05:47:08;;;;;;;3.03;2.83;;;18.50;36.10;;;;;;5012481;28;20915;-83
2024/01/14 05:49:34;;;;;;;2.63;2.43;;;18.50;36.10;;;;;;5011619;28;20269;-82
2024/01/14 05:51:59;;;;;;;3.20;3.00;;;18.50;36.10;;;;;;4998080;28;20446;-82
2024/01/14 05:54:25;;;;;;;2.67;2.57;;;18.50;36.10;;;;;;5015690;28;20241;-82
2024/01/14 05:56:51;;;;;;;2.57;2.40;;;18.50;36.10;;;;;;5012496;28;20222;-82
2024/01/14 05:59:17;;;;;;;2.50;2.40;;;18.50;36.10;;;;;;5011045;28;20223;-83
2024/01/14 06:01:42;;;;;;;2.20;2.10;;;18.50;36.10;;;;;;5013615;28;20471;-83
2024/01/14 06:27:05;;;;;;;2.60;2.43;;;18.50;36.10;;;;;;4998255;28;20471;-82
2024/01/14 06:29:30;;;;;;;2.90;2.70;;;18.50;36.10;;;;;;4997613;28;20562;-83
2024/01/14 06:31:58;;;;;;;3.10;2.90;;;18.50;36.10;;;;;;4989682;28;20475;-83
2024/01/14 06:34:24;;;;;;;2.40;2.30;;;18.50;36.10;;;;;;4996420;28;20289;-83
2024/01/14 06:36:50;;;;;;;2.53;2.37;;;18.50;36.10;;;;;;4997549;28;20429;-83
2024/01/14 06:39:15;;;;;;;2.80;2.60;;;18.50;36.10;;;;;;4999471;28;20445;-83
2024/01/14 06:41:41;;;;;;;3.13;2.80;;;18.50;36.10;;;;;;4998637;28;20220;-82
2024/01/14 06:44:06;;;;;;;2.70;2.60;;;18.50;36.00;;;;;;4998951;28;20223;-82
2024/01/14 06:46:32;;;;;;;3.20;3.00;;;18.50;36.00;;;;;;4998445;28;20227;-82
2024/01/14 06:48:58;;;;;;;2.57;2.47;;;18.50;36.00;;;;;;5000301;28;20763;-83
2024/01/14 06:51:23;;;;;;;2.67;2.47;;;18.50;36.00;;;;;;5000343;28;20219;-82
2024/01/14 06:53:49;;;;;;;2.60;2.40;;;18.50;35.90;;;;;;5001644;28;20259;-81
2024/01/14 06:56:16;;;;;;;3.03;2.83;;;18.50;36.00;;;;;;4999974;28;20792;-82
2024/01/14 06:58:41;;;;;;;2.97;2.77;;;18.50;36.00;;;;;;5001018;28;20222;-83
2024/01/14 07:01:07;;;;;;;2.50;2.40;;;18.50;36.10;;;;;;4997658;28;20886;-82
2024/01/14 07:03:33;;;;;;;3.20;3.00;;;18.50;35.90;;;;;;4997201;28;20569;-81
2024/01/14 07:05:59;;;;;;;2.80;2.60;;;18.50;35.90;;;;;;5000706;28;20222;-82
2024/01/14 07:08:25;;;;;;;2.87;2.77;;;18.60;36.00;;;;;;4999075;28;20235;-82
2024/01/14 07:10:50;;;;;;;2.50;2.40;;;18.50;35.90;;;;;;4998694;28;20219;-81
2024/01/14 07:13:17;;;;;;;2.37;2.27;;;18.60;36.00;;;;;;4997882;28;20916;-82
2024/01/14 07:15:43;;;;;;;2.40;2.30;;;18.60;36.00;;;;;;4998366;28;20232;-82
2024/01/14 07:18:08;;;;;;;2.70;2.40;;;18.60;36.00;;;;;;4978323;28;20440;-82
2024/01/14 07:20:34;;;;;;;2.90;2.70;;;18.60;35.90;;;;;;4996414;28;20219;-82
2024/01/14 07:22:59;;;;;;;2.67;2.50;;;18.50;35.80;;;;;;5000524;28;20215;-82
2024/01/14 07:25:25;;;;;;;2.77;2.57;;;18.60;35.90;;;;;;4998084;28;20326;-82
2024/01/14 07:27:51;;;;;;;4.23;2.47;;;18.60;35.90;;;;;;4999663;28;20262;-82
2024/01/14 07:30:18;;;;;;;2.80;2.60;;;18.60;35.90;;;;;;4997201;28;20439;-83
2024/01/14 07:32:45;;;;;;;2.60;2.50;;;18.60;35.90;;;;;;4996586;28;20220;-82
2024/01/14 07:35:11;;;;;;;3.33;3.10;;;18.60;35.90;;;;;;4997423;28;20448;-82
2024/01/14 07:37:37;;;;;;;2.83;2.33;;;18.60;35.90;;;;;;4982317;28;20444;-82
2024/01/14 07:40:03;;;;;;;2.50;2.40;;;18.60;35.90;;;;;;4993429;28;20254;-82
2024/01/14 07:42:28;;;;;;;2.40;2.20;;;18.60;35.90;;;;;;4996873;28;20354;-82
2024/01/14 07:44:54;;;;;;;3.17;2.97;;;18.60;35.90;;;;;;4999505;28;20208;-82
2024/01/14 07:47:20;;;;;;;2.40;2.30;;;18.60;35.90;;;;;;5000451;28;20215;-81
2024/01/14 07:49:48;;;;;;;2.73;2.57;;;18.60;35.90;;;;;;4999246;28;21382;-81
2024/01/14 07:52:17;;;;;;;2.67;2.50;;;18.60;35.90;;;;;;5004458;28;20420;-82
2024/01/14 07:54:43;;;;;;;3.00;2.27;;;18.60;35.80;;;;;;4999495;28;20425;-82
2024/01/14 07:57:09;;;;;;;2.70;2.50;;;18.60;35.90;;;;;;4998901;28;21209;-81
2024/01/14 07:59:35;;;;;;;2.60;2.40;;;18.60;35.90;;;;;;4996464;28;20230;-82
2024/01/14 08:02:01;;;;;;;3.00;2.80;;;18.60;35.90;;;;;;4999343;28;20432;-82
2024/01/14 08:04:26;;;;;;;2.40;2.23;;;18.60;35.90;;;;;;4998710;28;20227;-82
2024/01/14 08:06:52;;;;;;;2.60;2.50;;;18.60;35.90;;;;;;4997805;28;20448;-82
2024/01/14 08:09:17;;;;;;;2.40;2.30;;;18.60;35.90;;;;;;4997787;28;20357;-82
2024/01/14 08:11:43;;;;;;;2.50;2.40;;;18.60;35.90;;;;;;4979814;28;20675;-83
2024/01/14 08:14:08;;;;;;;2.77;2.57;;;18.60;35.90;;;;;;4998098;28;20226;-82
2024/01/14 08:16:34;;;;;;;2.63;2.43;;;18.60;35.80;;;;;;4980282;28;20299;-82
2024/01/14 08:19:00;;;;;;;2.50;2.30;;;18.60;35.90;;;;;;4995351;28;20239;-82
2024/01/14 08:21:25;;;;;;;3.67;2.90;;;18.60;35.80;;;;;;5000076;28;20230;-82
2024/01/14 08:23:51;;;;;;;2.37;2.17;;;18.60;35.80;;;;;;4996616;28;20220;-82
2024/01/14 08:26:16;;;;;;;2.50;2.40;;;18.60;35.80;;;;;;4996922;28;20761;-82
2024/01/14 08:28:42;;;;;;;2.10;2.00;;;18.60;35.90;;;;;;5008239;28;20944;-82
2024/01/14 08:31:07;;;;;;;2.43;2.33;;;18.60;35.90;;;;;;5009858;28;20283;-82
2024/01/14 08:33:33;;;;;;;2.30;2.10;;;18.60;35.90;;;;;;5011807;28;20284;-82
2024/01/14 08:35:59;;;;;;;2.33;2.23;;;18.60;35.90;;;;;;5016158;28;20227;-82
2024/01/14 08:38:25;;;;;;;2.47;2.37;;;18.50;35.80;;;;;;5012402;28;20231;-83
2024/01/14 08:40:51;;;;;;;2.53;2.33;;;18.60;35.90;;;;;;5014176;28;20462;-81
2024/01/14 08:43:17;;;;;;;2.47;2.27;;;18.60;36.00;;;;;;5010924;28;20258;-81
2024/01/14 08:45:42;;;;;;;3.00;2.80;;;18.60;36.00;;;;;;5016431;28;20509;-80
2024/01/14 08:48:10;;;;;;;2.70;2.20;;;18.60;36.00;;;;;;5016961;28;20318;-81
2024/01/14 08:50:36;;;;;;;3.30;2.30;;;18.60;35.90;;;;;;4997972;28;20706;-81
2024/01/14 08:53:01;;;;;;;8.40;2.67;;;18.60;35.90;;;;;;5023991;28;20458;-80
2024/01/14 08:55:28;;;;;;;4.80;2.50;;;18.70;36.00;;;;;;5016268;28;20305;-81
2024/01/14 08:57:54;;;;;;;7.00;2.40;;;18.60;35.90;;;;;;4997895;28;20238;-81
2024/01/14 09:00:20;;;;;;;5.07;2.73;;;18.70;36.00;;;;;;5014967;28;20429;-79
2024/01/14 09:02:46;;;;;;;2.23;2.03;;;18.60;36.00;;;;;;5012495;28;20495;-79
2024/01/14 09:05:11;;;;;;;5.13;2.30;;;18.70;36.10;;;;;;4999435;28;20215;-80
2024/01/14 09:07:37;;;;;;;22.70;6.70;;;18.70;36.20;;;;;;5018021;28;20253;-81
2024/01/14 09:10:02;;;;;;;104.90;13.77;;;18.70;36.20;;;;;;5021667;28;20585;-80
2024/01/14 09:12:29;;;;;;;159.77;19.90;;;18.70;36.20;;;;;;5006157;28;20293;-82
2024/01/14 09:14:54;;;;;;;136.60;16.80;;;18.70;36.40;;;;;;5018284;28;20278;-80
2024/01/14 09:17:20;;;;;;;115.00;15.23;;;18.70;36.50;;;;;;5024422;28;22366;-80
2024/01/14 09:19:45;;;;;;;281.57;26.90;;;18.80;36.70;;;;;;5030100;28;20221;-83
2024/01/14 09:22:11;;;;;;;211.63;25.80;;;18.80;36.70;;;;;;5029004;28;20219;-82
2024/01/14 09:24:37;;;;;;;188.33;23.73;;;18.80;36.70;;;;;;5027674;28;20246;-83
2024/01/14 09:27:03;;;;;;;225.50;25.13;;;18.80;36.80;;;;;;5012357;28;20717;-82
2024/01/14 09:29:29;;;;;;;109.90;17.13;;;18.80;36.90;;;;;;5028979;28;20499;-81
2024/01/14 09:31:55;;;;;;;56.70;11.17;;;18.90;37.00;;;;;;5029610;28;20486;-85
2024/01/14 09:34:20;;;;;;;41.50;10.07;;;18.90;37.00;;;;;;5035152;28;20481;-82
2024/01/14 09:36:46;;;;;;;33.53;9.53;;;18.80;37.00;;;;;;5029188;28;20708;-83
2024/01/14 09:39:12;;;;;;;31.80;8.37;;;18.90;37.10;;;;;;5028559;28;20223;-83
2024/01/14 09:42:02;;;;;;;27.63;7.57;;;18.90;37.10;;;;;;5024866;28;20227;-89
2024/01/14 09:44:28;;;;;;;30.13;6.90;;;18.90;37.20;;;;;;5026341;28;20555;-83
2024/01/14 09:46:55;;;;;;;14.17;6.20;;;18.90;37.20;;;;;;5026819;28;20434;-83
2024/01/14 09:49:22;;;;;;;20.23;6.20;;;18.90;37.20;;;;;;5027015;28;20257;-83
2024/01/14 09:51:49;;;;;;;18.50;5.80;;;18.90;37.20;;;;;;5028935;28;20513;-82
2024/01/14 09:54:15;;;;;;;20.97;5.90;;;18.90;37.20;;;;;;5024675;28;20499;-83
2024/01/14 09:56:41;;;;;;;11.00;4.73;;;18.90;38.00;;;;;;5029430;28;20441;-83
2024/01/14 09:59:08;;;;;;;6.67;4.10;;;18.90;37.10;;;;;;5029024;28;20226;-81
2024/01/14 10:01:34;;;;;;;15.83;4.60;;;18.90;37.20;;;;;;5027162;28;20460;-82
2024/01/14 10:04:01;;;;;;;12.60;4.90;;;18.90;37.20;;;;;;5028681;28;20419;-82
2024/01/14 10:06:27;;;;;;;10.27;5.00;;;18.90;37.10;;;;;;5024541;28;20759;-82
2024/01/14 10:08:54;;;;;;;12.47;4.20;;;18.90;37.10;;;;;;5015684;28;20410;-82
2024/01/14 10:11:19;;;;;;;12.77;4.20;;;18.90;37.10;;;;;;5029019;28;20436;-82
2024/01/14 10:13:46;;;;;;;13.13;4.50;;;18.90;37.00;;;;;;5010665;28;20455;-83
2024/01/14 10:16:15;;;;;;;13.73;4.00;;;18.90;37.00;;;;;;5024607;28;20791;-82
2024/01/14 10:18:40;;;;;;;8.80;4.50;;;18.90;37.00;;;;;;5031149;28;20954;-82
2024/01/14 10:21:06;;;;;;;6.40;4.17;;;18.90;37.00;;;;;;5034394;28;20419;-82
2024/01/14 10:23:32;;;;;;;9.00;3.40;;;18.90;36.90;;;;;;5033571;28;20217;-84
2024/01/14 10:26:03;;;;;;;7.00;3.83;;;18.90;37.00;;;;;;5031003;28;20219;-83
2024/01/14 10:28:36;;;;;;;4.93;2.90;;;18.90;36.90;;;;;;5033738;28;20449;-84
2024/01/14 10:31:04;;;;;;;3.63;3.27;;;18.90;36.90;;;;;;5031499;28;20435;-85
2024/01/14 10:33:33;;;;;;;5.10;3.37;;;18.80;36.80;;;;;;5018613;28;21050;-83
2024/01/14 10:36:00;;;;;;;4.33;3.57;;;18.80;36.70;;;;;;5016048;28;20441;-83
2024/01/14 10:38:25;;;;;;;3.40;2.87;;;18.80;36.70;;;;;;5032804;28;20457;-83
2024/01/14 10:40:51;;;;;;;2.83;2.60;;;18.80;36.70;;;;;;5035155;28;20858;-83
2024/01/14 10:43:17;;;;;;;5.33;3.20;;;18.80;36.70;;;;;;5035320;28;20768;-83
2024/01/14 10:45:46;;;;;;;4.33;2.67;;;18.80;36.60;;;;;;5030944;28;20439;-83
2024/01/14 10:48:15;;;;;;;4.57;2.80;;;18.80;36.70;;;;;;5030228;28;20215;-84
2024/01/14 10:50:44;;;;;;;7.77;2.93;;;18.80;36.60;;;;;;5029751;28;20407;-83
2024/01/14 10:53:18;;;;;;;3.10;2.87;;;18.80;36.60;;;;;;5013688;28;20432;-83
2024/01/14 10:55:50;;;;;;;4.37;3.43;;;18.80;36.60;;;;;;5028417;28;20430;-83
2024/01/14 10:58:28;;;;;;;7.27;2.80;;;18.80;36.60;;;;;;5031396;28;20432;-81
2024/01/14 11:00:58;;;;;;;2.73;2.53;;;18.80;36.60;;;;;;5030279;28;20453;-88
2024/01/14 11:03:24;;;;;;;5.13;2.60;;;18.80;36.60;;;;;;5014328;28;20444;-82
2024/01/14 11:05:51;;;;;;;3.90;3.10;;;18.70;36.60;;;;;;5031526;28;20438;-82
2024/01/14 11:08:18;;;;;;;2.60;2.40;;;18.70;36.60;;;;;;5032761;28;20423;-84
2024/01/14 11:10:44;;;;;;;4.87;2.30;;;18.70;36.60;;;;;;5033732;28;20418;-83
2024/01/14 11:13:31;;;;;;;2.50;2.30;;;18.70;36.50;;;;;;5032606;28;20410;-84
2024/01/14 11:15:59;;;;;;;5.73;2.67;;;18.70;36.60;;;;;;5012770;28;20956;-83
2024/01/14 11:18:35;;;;;;;4.00;2.10;;;18.70;36.50;;;;;;5031749;28;20434;-82
2024/01/14 11:21:21;;;;;;;3.00;2.07;;;18.70;36.50;;;;;;5029194;28;20450;-83
2024/01/14 11:23:47;;;;;;;2.93;2.73;;;18.70;36.50;;;;;;5031816;28;20421;-82
2024/01/14 11:26:13;;;;;;;2.30;2.10;;;18.70;36.50;;;;;;5030146;28;20441;-83
2024/01/14 11:28:43;;;;;;;2.10;1.97;;;18.70;36.50;;;;;;5025452;28;20493;-83
2024/01/14 11:31:08;;;;;;;3.33;2.57;;;18.70;36.50;;;;;;5009033;28;20775;-81
2024/01/14 11:33:40;;;;;;;3.00;2.80;;;18.70;36.50;;;;;;5025900;28;20431;-82
2024/01/14 11:36:07;;;;;;;2.30;2.10;;;18.70;36.50;;;;;;5025206;28;20308;-81
2024/01/14 11:38:35;;;;;;;1.80;1.70;;;18.70;36.50;;;;;;5026353;28;20442;-83
2024/01/14 11:41:29;;;;;;;2.00;1.87;;;18.70;36.50;;;;;;5026724;28;20484;-82
2024/01/14 11:44:27;;;;;;;2.30;2.00;;;18.70;36.40;;;;;;5021265;28;20419;-84
2024/01/14 11:46:54;;;;;;;2.63;2.37;;;18.70;36.50;;;;;;5024951;28;20530;-82
2024/01/14 11:49:23;;;;;;;2.10;2.00;;;18.70;36.50;;;;;;5029797;28;20473;-86
2024/01/14 11:51:58;;;;;;;2.80;2.17;;;18.70;36.50;;;;;;5009589;28;20455;-83
2024/01/14 11:54:24;;;;;;;1.97;1.80;;;18.70;36.50;;;;;;5028619;28;20446;-83
2024/01/14 11:56:49;;;;;;;1.90;1.80;;;18.70;36.50;;;;;;5026568;28;21186;-80
2024/01/14 11:59:17;;;;;;;2.03;1.70;;;18.70;36.60;;;;;;5024689;28;20438;-82
2024/01/14 12:01:42;;;;;;;2.43;1.70;;;18.70;36.50;;;;;;5024951;28;20316;-82
2024/01/14 12:04:11;;;;;;;3.30;2.10;;;18.70;36.60;;;;;;4994028;28;20625;-82
2024/01/14 12:06:41;;;;;;;2.27;1.70;;;18.70;36.50;;;;;;5027592;28;20225;-83
2024/01/14 12:09:08;;;;;;;1.67;1.57;;;18.70;36.60;;;;;;5026083;28;20435;-81
2024/01/14 12:11:37;;;;;;;3.00;1.83;;;18.70;36.60;;;;;;5025899;28;20418;-83
2024/01/14 12:14:03;;;;;;;1.73;1.63;;;18.60;36.50;;;;;;5018382;28;20446;-84
2024/01/14 12:16:31;;;;;;;2.23;2.13;;;18.60;36.40;;;;;;5014599;28;20472;-84
2024/01/14 12:18:57;;;;;;;2.10;1.90;;;18.60;36.50;;;;;;5004345;28;20834;-83
2024/01/14 12:21:23;;;;;;;10.37;2.87;;;18.70;36.50;;;;;;5013808;28;20430;-83
2024/01/14 12:23:50;;;;;;;47.00;7.27;;;18.70;36.60;;;;;;5025168;28;20390;-84
2024/01/14 12:26:16;;;;;;;35.30;5.73;;;18.70;36.30;;;;;;5028010;28;20512;-83
2024/01/14 12:28:41;;;;;;;13.27;4.63;;;18.70;36.10;;;;;;5026476;28;20533;-83
2024/01/14 12:31:07;;;;;;;8.97;3.70;;;18.70;35.90;;;;;;5002920;28;20230;-82
2024/01/14 12:33:33;;;;;;;23.40;5.70;;;18.70;35.80;;;;;;5023527;28;20210;-81
2024/01/14 12:35:59;;;;;;;14.90;4.60;;;18.80;35.70;;;;;;5007796;28;20218;-82
2024/01/14 12:38:25;;;;;;;12.00;4.87;;;18.80;35.70;;;;;;5022357;28;20690;-82
2024/01/14 12:40:50;;;;;;;8.87;3.40;;;18.80;35.80;;;;;;5025563;28;20453;-83
2024/01/14 12:43:16;;;;;;;7.70;3.43;;;18.80;35.80;;;;;;5023532;28;20261;-82
2024/01/14 12:45:49;;;;;;;6.20;3.30;;;18.80;35.90;;;;;;5019494;28;20233;-84
2024/01/14 12:48:23;;;;;;;13.00;3.13;;;18.80;36.00;;;;;;5016166;28;20694;-81
2024/01/14 12:50:56;;;;;;;6.13;3.63;;;18.80;36.10;;;;;;5020538;28;20472;-82
2024/01/14 12:53:22;;;;;;;17.37;3.17;;;18.80;36.20;;;;;;5003870;28;20788;-82
2024/01/14 12:55:48;;;;;;;4.67;2.63;;;18.70;36.10;;;;;;4996973;28;20423;-83
2024/01/14 12:58:14;;;;;;;2.93;2.43;;;18.70;36.20;;;;;;5000866;28;20931;-83
2024/01/14 13:00:46;;;;;;;2.70;2.20;;;18.70;36.20;;;;;;5036898;27;20558;-68
2024/01/14 13:03:11;;;;;;;4.70;2.90;;;18.80;36.40;;;;;;5028511;28;20454;-68
2024/01/14 13:05:37;;;;;;;3.57;2.50;;;18.80;36.40;;;;;;5036803;28;20612;-68